메인 페이지
METAR-TAF:

METAR-TAF

공항 :

OR 탐보 국제공항

요하네스버그, 남아프리카공화국

위도: 26-08S, 경도: 028-14E, 고도: 1694m

현재 날씨관측

예보는 1 시간 9분 전, 15:00시(UTC)에 발표되었습니다.
18kt
온도 19°C
습도 73%
기압 1021 hPa
시정 10km 이상
고도 3000ft 상공 구름 보통

METAR: FAOR 181500Z 19018KT 9999 SCT030 19/14 Q1021 NOSIG

시각: 18:09 (16:09 UTC)

예보

예보는 6 시간 9분 전, 10:00시(UTC)에 발표되었습니다.
예보 대상 시간: 18일 12시부터 19일 18시까지 (UTC)
서남서10kt
시정 10km 이상
고도 4000ft 상공 구름 보통
일시적
18일 12시부터 18일 15시까지 (UTC)
남서15kt, 순간 최대 풍속 25kt
시정: 5000m
고도 3500ft 상공 구름 조금, 적란운.
뇌우, 비
확률 30% :
일시적
18일 16시부터 18일 22시까지 (UTC)
고도 3500ft 상공 구름 조금, 적란운.
뇌우, 약한비
전환 중
18일 22시부터 18일 24시까지 (UTC)
여러 방향의 바람 3kt
전환 중
19일 03시부터 19일 05시까지 (UTC)
북북동10kt
전환 중
19일 09시부터 19일 11시까지 (UTC)
북북서10kt
확률 30% :
일시적
19일 15시부터 19일 18시까지 (UTC)
고도 4000ft 상공 구름 조금, 적란운.
뇌우, 약한비

TAF: FAOR 181000Z 1812/1918 24010KT 9999 SCT040 TEMPO 1812/1815 23015G25KT 5000 TSRA FEW035CB PROB30 TEMPO 1816/1822 -TSRA FEW035CB BECMG 1822/1824 VRB03KT BECMG 1903/1905 03010KT BECMG 1909/1911 33010KT PROB30 TEMPO 1915/1918 -TSRA FEW040CB TX27/1813Z TN15/1903Z

4,000개 이상의 공항 관측 자료 및 예보 (METAR 및 TAF 보고).

지도상에서 검색 가능한 기상관측소가 노란 점과 빨간 점으로 표시되어 있습니다.

기상관측소 명을 보려면 표시 위로 마우스를 이동하세요.

날씨 관측과 예보를 보려면 클릭하세요.

지도 변경 : 확대하려면 엑스 표시가 있는 녹색 버튼, 축소하려면 빼기 표시가 있는 녹색 버튼, 다음 페이지의 지도를 보려면 녹색 화살표를 클릭하세요.


METAR-TAF: